sensor_id;sensor_type;location;lat;lon;timestamp;P1;durP1;ratioP1;P2;durP2;ratioP2
3795;SDS011;1913;50.660;7.834;2023-12-20T00:00:51;4.00;;;3.40;;
3795;SDS011;1913;50.660;7.834;2023-12-20T00:03:16;4.67;;;3.63;;
3795;SDS011;1913;50.660;7.834;2023-12-20T00:05:41;5.10;;;3.40;;
3795;SDS011;1913;50.660;7.834;2023-12-20T00:08:07;3.20;;;2.90;;
3795;SDS011;1913;50.660;7.834;2023-12-20T00:10:32;4.30;;;3.57;;
3795;SDS011;1913;50.660;7.834;2023-12-20T00:12:57;4.40;;;3.43;;
3795;SDS011;1913;50.660;7.834;2023-12-20T00:15:22;4.83;;;3.03;;
3795;SDS011;1913;50.660;7.834;2023-12-20T00:17:47;4.53;;;3.47;;
3795;SDS011;1913;50.660;7.834;2023-12-20T00:20:13;3.47;;;3.10;;
3795;SDS011;1913;50.660;7.834;2023-12-20T00:22:38;4.77;;;3.40;;
3795;SDS011;1913;50.660;7.834;2023-12-20T00:25:03;4.23;;;3.57;;
3795;SDS011;1913;50.660;7.834;2023-12-20T00:27:28;4.83;;;3.93;;
3795;SDS011;1913;50.660;7.834;2023-12-20T00:29:53;4.10;;;3.70;;
3795;SDS011;1913;50.660;7.834;2023-12-20T00:32:19;4.80;;;3.50;;
3795;SDS011;1913;50.660;7.834;2023-12-20T00:34:44;3.97;;;3.30;;
3795;SDS011;1913;50.660;7.834;2023-12-20T00:37:09;4.70;;;3.60;;
3795;SDS011;1913;50.660;7.834;2023-12-20T00:39:34;5.63;;;3.73;;
3795;SDS011;1913;50.660;7.834;2023-12-20T00:42:00;3.80;;;3.37;;
3795;SDS011;1913;50.660;7.834;2023-12-20T00:44:25;5.47;;;3.87;;
3795;SDS011;1913;50.660;7.834;2023-12-20T00:46:50;4.10;;;3.37;;
3795;SDS011;1913;50.660;7.834;2023-12-20T00:49:15;4.60;;;3.87;;
3795;SDS011;1913;50.660;7.834;2023-12-20T00:51:40;4.20;;;3.80;;
3795;SDS011;1913;50.660;7.834;2023-12-20T00:54:05;4.93;;;4.07;;
3795;SDS011;1913;50.660;7.834;2023-12-20T00:56:31;4.77;;;3.83;;
3795;SDS011;1913;50.660;7.834;2023-12-20T00:58:56;6.10;;;4.20;;
3795;SDS011;1913;50.660;7.834;2023-12-20T01:01:21;5.07;;;3.87;;
3795;SDS011;1913;50.660;7.834;2023-12-20T01:03:46;6.80;;;5.40;;
3795;SDS011;1913;50.660;7.834;2023-12-20T01:06:12;5.87;;;4.57;;
3795;SDS011;1913;50.660;7.834;2023-12-20T01:08:37;5.67;;;4.47;;
3795;SDS011;1913;50.660;7.834;2023-12-20T01:11:05;5.40;;;4.40;;
3795;SDS011;1913;50.660;7.834;2023-12-20T01:13:30;6.90;;;4.33;;
3795;SDS011;1913;50.660;7.834;2023-12-20T01:15:56;5.23;;;4.50;;
3795;SDS011;1913;50.660;7.834;2023-12-20T01:18:21;5.90;;;3.97;;
3795;SDS011;1913;50.660;7.834;2023-12-20T01:20:46;5.30;;;4.10;;
3795;SDS011;1913;50.660;7.834;2023-12-20T01:23:11;4.90;;;4.20;;
3795;SDS011;1913;50.660;7.834;2023-12-20T01:25:36;5.50;;;4.20;;
3795;SDS011;1913;50.660;7.834;2023-12-20T01:28:02;7.03;;;4.83;;
3795;SDS011;1913;50.660;7.834;2023-12-20T01:30:28;6.63;;;4.87;;
3795;SDS011;1913;50.660;7.834;2023-12-20T01:32:53;6.10;;;4.10;;
3795;SDS011;1913;50.660;7.834;2023-12-20T01:35:19;6.63;;;4.30;;
3795;SDS011;1913;50.660;7.834;2023-12-20T01:37:44;6.40;;;3.37;;
3795;SDS011;1913;50.660;7.834;2023-12-20T01:40:09;5.23;;;3.90;;
3795;SDS011;1913;50.660;7.834;2023-12-20T01:42:35;4.90;;;3.93;;
3795;SDS011;1913;50.660;7.834;2023-12-20T01:45:00;4.63;;;3.70;;
3795;SDS011;1913;50.660;7.834;2023-12-20T01:47:25;5.90;;;4.20;;
3795;SDS011;1913;50.660;7.834;2023-12-20T01:49:52;6.70;;;4.83;;
3795;SDS011;1913;50.660;7.834;2023-12-20T01:52:17;6.50;;;4.80;;
3795;SDS011;1913;50.660;7.834;2023-12-20T01:54:42;7.77;;;5.30;;
3795;SDS011;1913;50.660;7.834;2023-12-20T01:57:07;5.23;;;4.00;;
3795;SDS011;1913;50.660;7.834;2023-12-20T01:59:33;8.63;;;5.07;;
3795;SDS011;1913;50.660;7.834;2023-12-20T02:01:59;6.30;;;4.87;;
3795;SDS011;1913;50.660;7.834;2023-12-20T02:04:24;7.87;;;6.03;;
3795;SDS011;1913;50.660;7.834;2023-12-20T02:06:49;14.67;;;7.10;;
3795;SDS011;1913;50.660;7.834;2023-12-20T02:09:17;12.87;;;4.77;;
3795;SDS011;1913;50.660;7.834;2023-12-20T02:11:42;8.40;;;4.90;;
3795;SDS011;1913;50.660;7.834;2023-12-20T02:14:08;7.67;;;3.90;;
3795;SDS011;1913;50.660;7.834;2023-12-20T02:16:33;6.47;;;3.60;;
3795;SDS011;1913;50.660;7.834;2023-12-20T02:18:58;7.63;;;3.87;;
3795;SDS011;1913;50.660;7.834;2023-12-20T02:21:32;9.00;;;3.97;;
3795;SDS011;1913;50.660;7.834;2023-12-20T02:23:58;7.17;;;4.17;;
3795;SDS011;1913;50.660;7.834;2023-12-20T02:26:24;10.50;;;4.43;;
3795;SDS011;1913;50.660;7.834;2023-12-20T02:28:49;7.70;;;4.43;;
3795;SDS011;1913;50.660;7.834;2023-12-20T02:31:14;8.63;;;5.17;;
3795;SDS011;1913;50.660;7.834;2023-12-20T02:33:39;12.93;;;5.30;;
3795;SDS011;1913;50.660;7.834;2023-12-20T02:36:07;13.17;;;5.70;;
3795;SDS011;1913;50.660;7.834;2023-12-20T02:38:32;18.50;;;6.33;;
3795;SDS011;1913;50.660;7.834;2023-12-20T02:40:57;16.43;;;7.40;;
3795;SDS011;1913;50.660;7.834;2023-12-20T02:43:22;17.10;;;8.00;;
3795;SDS011;1913;50.660;7.834;2023-12-20T02:45:48;11.33;;;6.33;;
3795;SDS011;1913;50.660;7.834;2023-12-20T02:48:13;14.73;;;7.60;;
3795;SDS011;1913;50.660;7.834;2023-12-20T02:50:38;16.47;;;7.83;;
3795;SDS011;1913;50.660;7.834;2023-12-20T02:53:03;14.40;;;8.13;;
3795;SDS011;1913;50.660;7.834;2023-12-20T02:55:28;15.50;;;8.27;;
3795;SDS011;1913;50.660;7.834;2023-12-20T02:57:54;18.67;;;6.70;;
3795;SDS011;1913;50.660;7.834;2023-12-20T03:00:19;13.00;;;7.93;;
3795;SDS011;1913;50.660;7.834;2023-12-20T03:02:44;11.67;;;7.50;;
3795;SDS011;1913;50.660;7.834;2023-12-20T03:05:09;14.87;;;7.53;;
3795;SDS011;1913;50.660;7.834;2023-12-20T03:07:36;12.27;;;8.20;;
3795;SDS011;1913;50.660;7.834;2023-12-20T03:10:01;17.77;;;8.33;;
3795;SDS011;1913;50.660;7.834;2023-12-20T03:12:26;22.40;;;9.33;;
3795;SDS011;1913;50.660;7.834;2023-12-20T03:14:51;16.53;;;9.77;;
3795;SDS011;1913;50.660;7.834;2023-12-20T03:17:16;19.07;;;10.90;;
3795;SDS011;1913;50.660;7.834;2023-12-20T03:19:42;18.00;;;10.80;;
3795;SDS011;1913;50.660;7.834;2023-12-20T03:22:07;18.17;;;10.00;;
3795;SDS011;1913;50.660;7.834;2023-12-20T03:24:32;21.57;;;10.60;;
3795;SDS011;1913;50.660;7.834;2023-12-20T03:26:57;26.27;;;10.93;;
3795;SDS011;1913;50.660;7.834;2023-12-20T03:29:22;22.70;;;12.00;;
3795;SDS011;1913;50.660;7.834;2023-12-20T03:31:47;22.80;;;12.43;;
3795;SDS011;1913;50.660;7.834;2023-12-20T03:34:13;25.23;;;12.40;;
3795;SDS011;1913;50.660;7.834;2023-12-20T03:36:38;20.07;;;12.20;;
3795;SDS011;1913;50.660;7.834;2023-12-20T03:39:03;20.17;;;10.30;;
3795;SDS011;1913;50.660;7.834;2023-12-20T03:41:29;19.73;;;9.37;;
3795;SDS011;1913;50.660;7.834;2023-12-20T03:43:54;21.13;;;10.40;;
3795;SDS011;1913;50.660;7.834;2023-12-20T03:46:19;15.77;;;8.00;;
3795;SDS011;1913;50.660;7.834;2023-12-20T03:48:44;22.43;;;9.17;;
3795;SDS011;1913;50.660;7.834;2023-12-20T03:51:09;26.20;;;8.37;;
3795;SDS011;1913;50.660;7.834;2023-12-20T03:53:35;21.23;;;8.33;;
3795;SDS011;1913;50.660;7.834;2023-12-20T03:56:00;18.00;;;6.90;;
3795;SDS011;1913;50.660;7.834;2023-12-20T03:58:25;20.53;;;7.23;;
3795;SDS011;1913;50.660;7.834;2023-12-20T04:00:50;21.20;;;7.80;;
3795;SDS011;1913;50.660;7.834;2023-12-20T04:03:15;27.53;;;7.50;;
3795;SDS011;1913;50.660;7.834;2023-12-20T04:05:41;23.73;;;8.10;;
3795;SDS011;1913;50.660;7.834;2023-12-20T04:08:06;21.10;;;8.50;;
3795;SDS011;1913;50.660;7.834;2023-12-20T04:10:32;24.87;;;9.57;;
3795;SDS011;1913;50.660;7.834;2023-12-20T04:12:57;16.50;;;8.53;;
3795;SDS011;1913;50.660;7.834;2023-12-20T04:15:22;28.30;;;9.40;;
3795;SDS011;1913;50.660;7.834;2023-12-20T04:17:47;20.17;;;8.33;;
3795;SDS011;1913;50.660;7.834;2023-12-20T04:20:12;30.57;;;9.87;;
3795;SDS011;1913;50.660;7.834;2023-12-20T04:22:37;21.67;;;9.10;;
3795;SDS011;1913;50.660;7.834;2023-12-20T04:25:03;24.27;;;9.53;;
3795;SDS011;1913;50.660;7.834;2023-12-20T04:27:28;24.17;;;9.40;;
3795;SDS011;1913;50.660;7.834;2023-12-20T04:29:53;22.40;;;8.83;;
3795;SDS011;1913;50.660;7.834;2023-12-20T04:32:19;27.77;;;9.45;;
3795;SDS011;1913;50.660;7.834;2023-12-20T04:34:44;27.37;;;8.60;;
3795;SDS011;1913;50.660;7.834;2023-12-20T04:37:09;24.73;;;7.67;;
3795;SDS011;1913;50.660;7.834;2023-12-20T04:39:34;25.67;;;7.50;;
3795;SDS011;1913;50.660;7.834;2023-12-20T04:41:59;24.33;;;7.60;;
3795;SDS011;1913;50.660;7.834;2023-12-20T04:44:24;16.53;;;6.83;;
3795;SDS011;1913;50.660;7.834;2023-12-20T04:46:49;19.13;;;7.43;;
3795;SDS011;1913;50.660;7.834;2023-12-20T04:49:15;24.27;;;6.83;;
3795;SDS011;1913;50.660;7.834;2023-12-20T04:51:40;20.87;;;7.60;;
3795;SDS011;1913;50.660;7.834;2023-12-20T04:54:05;20.83;;;7.23;;
3795;SDS011;1913;50.660;7.834;2023-12-20T04:56:30;22.83;;;6.67;;
3795;SDS011;1913;50.660;7.834;2023-12-20T04:58:55;20.27;;;7.27;;
3795;SDS011;1913;50.660;7.834;2023-12-20T05:01:20;28.67;;;7.27;;
3795;SDS011;1913;50.660;7.834;2023-12-20T05:03:46;18.63;;;6.53;;
3795;SDS011;1913;50.660;7.834;2023-12-20T05:06:11;23.03;;;6.70;;
3795;SDS011;1913;50.660;7.834;2023-12-20T05:08:36;20.70;;;5.80;;
3795;SDS011;1913;50.660;7.834;2023-12-20T05:11:02;25.65;;;6.50;;
3795;SDS011;1913;50.660;7.834;2023-12-20T05:13:27;21.67;;;6.47;;
3795;SDS011;1913;50.660;7.834;2023-12-20T05:15:52;19.33;;;6.57;;
3795;SDS011;1913;50.660;7.834;2023-12-20T05:18:17;37.50;;;7.57;;
3795;SDS011;1913;50.660;7.834;2023-12-20T05:20:42;18.90;;;7.17;;
3795;SDS011;1913;50.660;7.834;2023-12-20T05:23:08;25.10;;;6.60;;
3795;SDS011;1913;50.660;7.834;2023-12-20T05:25:33;22.23;;;6.77;;
3795;SDS011;1913;50.660;7.834;2023-12-20T05:27:58;27.50;;;6.70;;
3795;SDS011;1913;50.660;7.834;2023-12-20T05:30:23;25.43;;;7.40;;
3795;SDS011;1913;50.660;7.834;2023-12-20T05:32:48;22.17;;;7.50;;
3795;SDS011;1913;50.660;7.834;2023-12-20T05:35:14;22.13;;;6.40;;
3795;SDS011;1913;50.660;7.834;2023-12-20T05:37:40;26.73;;;7.50;;
3795;SDS011;1913;50.660;7.834;2023-12-20T05:40:05;23.03;;;7.43;;
3795;SDS011;1913;50.660;7.834;2023-12-20T05:42:30;22.03;;;6.53;;
3795;SDS011;1913;50.660;7.834;2023-12-20T05:44:56;25.20;;;7.17;;
3795;SDS011;1913;50.660;7.834;2023-12-20T05:47:21;22.00;;;7.67;;
3795;SDS011;1913;50.660;7.834;2023-12-20T05:49:46;23.27;;;7.33;;
3795;SDS011;1913;50.660;7.834;2023-12-20T05:52:11;22.90;;;7.73;;
3795;SDS011;1913;50.660;7.834;2023-12-20T05:54:36;16.67;;;6.60;;
3795;SDS011;1913;50.660;7.834;2023-12-20T05:57:02;20.90;;;5.93;;
3795;SDS011;1913;50.660;7.834;2023-12-20T05:59:27;25.23;;;7.97;;
3795;SDS011;1913;50.660;7.834;2023-12-20T06:01:52;16.97;;;6.20;;
3795;SDS011;1913;50.660;7.834;2023-12-20T06:04:18;17.27;;;6.27;;
3795;SDS011;1913;50.660;7.834;2023-12-20T06:06:43;27.33;;;6.70;;
3795;SDS011;1913;50.660;7.834;2023-12-20T06:09:08;21.73;;;7.20;;
3795;SDS011;1913;50.660;7.834;2023-12-20T06:11:34;19.73;;;6.10;;
3795;SDS011;1913;50.660;7.834;2023-12-20T06:13:59;23.70;;;6.00;;
3795;SDS011;1913;50.660;7.834;2023-12-20T06:16:24;17.40;;;6.70;;
3795;SDS011;1913;50.660;7.834;2023-12-20T06:18:49;19.27;;;6.83;;
3795;SDS011;1913;50.660;7.834;2023-12-20T06:21:14;19.67;;;6.13;;
3795;SDS011;1913;50.660;7.834;2023-12-20T06:23:40;19.97;;;5.90;;
3795;SDS011;1913;50.660;7.834;2023-12-20T06:26:05;19.60;;;6.00;;
3795;SDS011;1913;50.660;7.834;2023-12-20T06:28:30;23.43;;;6.67;;
3795;SDS011;1913;50.660;7.834;2023-12-20T06:30:55;24.53;;;7.27;;
3795;SDS011;1913;50.660;7.834;2023-12-20T06:33:22;18.97;;;6.30;;
3795;SDS011;1913;50.660;7.834;2023-12-20T06:35:47;25.27;;;7.40;;
3795;SDS011;1913;50.660;7.834;2023-12-20T06:38:12;23.30;;;6.00;;
3795;SDS011;1913;50.660;7.834;2023-12-20T06:40:38;19.40;;;6.20;;
3795;SDS011;1913;50.660;7.834;2023-12-20T06:43:03;18.43;;;6.77;;
3795;SDS011;1913;50.660;7.834;2023-12-20T06:45:28;20.60;;;7.73;;
3795;SDS011;1913;50.660;7.834;2023-12-20T06:47:53;23.30;;;7.60;;
3795;SDS011;1913;50.660;7.834;2023-12-20T06:50:19;19.33;;;7.20;;
3795;SDS011;1913;50.660;7.834;2023-12-20T06:52:44;28.43;;;7.40;;
3795;SDS011;1913;50.660;7.834;2023-12-20T06:55:10;23.60;;;7.10;;
3795;SDS011;1913;50.660;7.834;2023-12-20T06:57:35;18.67;;;6.80;;
3795;SDS011;1913;50.660;7.834;2023-12-20T07:00:01;21.23;;;7.30;;
3795;SDS011;1913;50.660;7.834;2023-12-20T07:02:26;21.83;;;6.90;;
3795;SDS011;1913;50.660;7.834;2023-12-20T07:04:55;21.93;;;7.40;;
3795;SDS011;1913;50.660;7.834;2023-12-20T07:07:20;25.00;;;6.47;;
3795;SDS011;1913;50.660;7.834;2023-12-20T07:09:45;22.47;;;7.67;;
3795;SDS011;1913;50.660;7.834;2023-12-20T07:12:10;23.53;;;7.00;;
3795;SDS011;1913;50.660;7.834;2023-12-20T07:14:36;31.73;;;7.80;;
3795;SDS011;1913;50.660;7.834;2023-12-20T07:17:01;17.07;;;7.00;;
3795;SDS011;1913;50.660;7.834;2023-12-20T07:19:26;29.27;;;6.87;;
3795;SDS011;1913;50.660;7.834;2023-12-20T07:21:51;19.63;;;4.90;;
3795;SDS011;1913;50.660;7.834;2023-12-20T07:24:16;19.70;;;5.43;;
3795;SDS011;1913;50.660;7.834;2023-12-20T07:26:42;17.10;;;6.17;;
3795;SDS011;1913;50.660;7.834;2023-12-20T07:29:08;24.17;;;6.33;;
3795;SDS011;1913;50.660;7.834;2023-12-20T07:31:33;17.33;;;6.10;;
3795;SDS011;1913;50.660;7.834;2023-12-20T07:33:58;15.47;;;7.77;;
3795;SDS011;1913;50.660;7.834;2023-12-20T07:36:23;24.00;;;7.33;;
3795;SDS011;1913;50.660;7.834;2023-12-20T07:38:49;20.20;;;7.90;;
3795;SDS011;1913;50.660;7.834;2023-12-20T07:41:14;32.10;;;12.50;;
3795;SDS011;1913;50.660;7.834;2023-12-20T07:43:41;25.67;;;8.33;;
3795;SDS011;1913;50.660;7.834;2023-12-20T07:46:06;23.53;;;7.27;;
3795;SDS011;1913;50.660;7.834;2023-12-20T07:48:31;27.73;;;7.37;;
3795;SDS011;1913;50.660;7.834;2023-12-20T07:50:56;37.70;;;9.27;;
3795;SDS011;1913;50.660;7.834;2023-12-20T07:53:22;24.40;;;7.80;;
3795;SDS011;1913;50.660;7.834;2023-12-20T07:55:47;34.93;;;9.80;;
3795;SDS011;1913;50.660;7.834;2023-12-20T07:58:12;25.20;;;8.10;;
3795;SDS011;1913;50.660;7.834;2023-12-20T08:00:37;38.43;;;10.00;;
3795;SDS011;1913;50.660;7.834;2023-12-20T08:03:03;29.40;;;7.80;;
3795;SDS011;1913;50.660;7.834;2023-12-20T08:05:28;25.57;;;6.67;;
3795;SDS011;1913;50.660;7.834;2023-12-20T08:07:53;17.10;;;7.07;;
3795;SDS011;1913;50.660;7.834;2023-12-20T08:10:19;35.13;;;8.07;;
3795;SDS011;1913;50.660;7.834;2023-12-20T08:12:44;28.83;;;7.57;;
3795;SDS011;1913;50.660;7.834;2023-12-20T08:15:09;32.57;;;6.83;;
3795;SDS011;1913;50.660;7.834;2023-12-20T08:17:34;18.87;;;5.80;;
3795;SDS011;1913;50.660;7.834;2023-12-20T08:20:00;23.03;;;6.60;;
3795;SDS011;1913;50.660;7.834;2023-12-20T08:22:25;15.53;;;6.40;;
3795;SDS011;1913;50.660;7.834;2023-12-20T08:24:50;21.37;;;6.20;;
3795;SDS011;1913;50.660;7.834;2023-12-20T08:27:15;27.70;;;6.50;;
3795;SDS011;1913;50.660;7.834;2023-12-20T08:29:43;23.83;;;6.90;;
3795;SDS011;1913;50.660;7.834;2023-12-20T08:32:08;26.50;;;6.40;;
3795;SDS011;1913;50.660;7.834;2023-12-20T08:34:33;22.77;;;7.03;;
3795;SDS011;1913;50.660;7.834;2023-12-20T08:36:58;23.03;;;6.27;;
3795;SDS011;1913;50.660;7.834;2023-12-20T08:39:23;21.53;;;5.30;;
3795;SDS011;1913;50.660;7.834;2023-12-20T08:41:49;21.60;;;5.60;;
3795;SDS011;1913;50.660;7.834;2023-12-20T08:44:14;16.13;;;5.73;;
3795;SDS011;1913;50.660;7.834;2023-12-20T08:46:39;18.63;;;5.97;;
3795;SDS011;1913;50.660;7.834;2023-12-20T08:49:04;18.23;;;5.57;;
3795;SDS011;1913;50.660;7.834;2023-12-20T08:51:30;22.93;;;6.83;;
3795;SDS011;1913;50.660;7.834;2023-12-20T08:53:55;25.40;;;5.60;;
3795;SDS011;1913;50.660;7.834;2023-12-20T08:56:20;18.63;;;6.20;;
3795;SDS011;1913;50.660;7.834;2023-12-20T08:58:46;18.77;;;5.50;;
3795;SDS011;1913;50.660;7.834;2023-12-20T09:01:11;19.10;;;5.13;;
3795;SDS011;1913;50.660;7.834;2023-12-20T09:03:37;19.53;;;5.67;;
3795;SDS011;1913;50.660;7.834;2023-12-20T09:06:02;15.00;;;5.00;;
3795;SDS011;1913;50.660;7.834;2023-12-20T09:08:27;16.70;;;4.90;;
3795;SDS011;1913;50.660;7.834;2023-12-20T09:10:53;22.77;;;5.63;;
3795;SDS011;1913;50.660;7.834;2023-12-20T09:13:18;23.10;;;5.83;;
3795;SDS011;1913;50.660;7.834;2023-12-20T09:15:43;18.33;;;5.30;;
3795;SDS011;1913;50.660;7.834;2023-12-20T09:18:08;11.83;;;4.10;;
3795;SDS011;1913;50.660;7.834;2023-12-20T09:20:34;29.63;;;5.23;;
3795;SDS011;1913;50.660;7.834;2023-12-20T09:22:59;12.90;;;4.63;;
3795;SDS011;1913;50.660;7.834;2023-12-20T09:25:24;27.70;;;6.23;;
3795;SDS011;1913;50.660;7.834;2023-12-20T09:27:51;19.63;;;4.87;;
3795;SDS011;1913;50.660;7.834;2023-12-20T09:30:17;17.07;;;5.00;;
3795;SDS011;1913;50.660;7.834;2023-12-20T09:32:42;12.73;;;4.93;;
3795;SDS011;1913;50.660;7.834;2023-12-20T09:35:07;22.17;;;4.57;;
3795;SDS011;1913;50.660;7.834;2023-12-20T09:37:33;14.30;;;4.00;;
3795;SDS011;1913;50.660;7.834;2023-12-20T09:39:59;14.80;;;4.37;;
3795;SDS011;1913;50.660;7.834;2023-12-20T09:42:28;15.37;;;4.63;;
3795;SDS011;1913;50.660;7.834;2023-12-20T09:44:54;13.23;;;4.47;;
3795;SDS011;1913;50.660;7.834;2023-12-20T09:47:20;21.70;;;5.30;;
3795;SDS011;1913;50.660;7.834;2023-12-20T09:49:47;16.20;;;4.03;;
3795;SDS011;1913;50.660;7.834;2023-12-20T09:52:13;19.70;;;4.27;;
3795;SDS011;1913;50.660;7.834;2023-12-20T09:54:39;19.13;;;4.10;;
3795;SDS011;1913;50.660;7.834;2023-12-20T09:57:04;24.00;;;4.60;;
3795;SDS011;1913;50.660;7.834;2023-12-20T09:59:29;10.73;;;3.37;;
3795;SDS011;1913;50.660;7.834;2023-12-20T10:01:55;12.77;;;3.17;;
3795;SDS011;1913;50.660;7.834;2023-12-20T10:04:21;18.87;;;4.50;;
3795;SDS011;1913;50.660;7.834;2023-12-20T10:06:47;13.77;;;3.10;;
3795;SDS011;1913;50.660;7.834;2023-12-20T10:09:12;11.80;;;3.40;;
3795;SDS011;1913;50.660;7.834;2023-12-20T10:11:38;10.60;;;3.50;;
3795;SDS011;1913;50.660;7.834;2023-12-20T10:14:04;10.50;;;3.30;;
3795;SDS011;1913;50.660;7.834;2023-12-20T10:16:29;11.97;;;3.47;;
3795;SDS011;1913;50.660;7.834;2023-12-20T10:18:55;10.57;;;3.90;;
3795;SDS011;1913;50.660;7.834;2023-12-20T10:21:20;12.20;;;3.17;;
3795;SDS011;1913;50.660;7.834;2023-12-20T10:23:45;10.73;;;3.17;;
3795;SDS011;1913;50.660;7.834;2023-12-20T10:26:18;13.83;;;2.83;;
3795;SDS011;1913;50.660;7.834;2023-12-20T10:28:44;16.67;;;3.10;;
3795;SDS011;1913;50.660;7.834;2023-12-20T10:31:09;9.73;;;2.97;;
3795;SDS011;1913;50.660;7.834;2023-12-20T10:33:34;13.03;;;2.97;;
3795;SDS011;1913;50.660;7.834;2023-12-20T10:36:00;18.00;;;3.20;;
3795;SDS011;1913;50.660;7.834;2023-12-20T10:38:25;15.73;;;3.63;;
3795;SDS011;1913;50.660;7.834;2023-12-20T10:40:52;15.43;;;3.63;;
3795;SDS011;1913;50.660;7.834;2023-12-20T10:43:19;13.70;;;4.20;;
3795;SDS011;1913;50.660;7.834;2023-12-20T10:45:44;14.67;;;3.10;;
3795;SDS011;1913;50.660;7.834;2023-12-20T10:48:10;14.67;;;3.67;;
3795;SDS011;1913;50.660;7.834;2023-12-20T10:50:36;10.00;;;2.80;;
3795;SDS011;1913;50.660;7.834;2023-12-20T10:53:01;8.67;;;3.30;;
3795;SDS011;1913;50.660;7.834;2023-12-20T10:55:27;11.20;;;2.67;;
3795;SDS011;1913;50.660;7.834;2023-12-20T10:57:54;10.17;;;2.73;;
3795;SDS011;1913;50.660;7.834;2023-12-20T11:00:20;14.10;;;4.03;;
3795;SDS011;1913;50.660;7.834;2023-12-20T11:02:46;13.67;;;3.63;;
3795;SDS011;1913;50.660;7.834;2023-12-20T11:08:02;14.17;;;3.30;;
3795;SDS011;1913;50.660;7.834;2023-12-20T11:10:38;11.50;;;3.03;;
3795;SDS011;1913;50.660;7.834;2023-12-20T11:13:09;14.07;;;4.00;;
3795;SDS011;1913;50.660;7.834;2023-12-20T11:15:36;16.33;;;4.13;;
3795;SDS011;1913;50.660;7.834;2023-12-20T11:18:01;16.63;;;3.60;;
3795;SDS011;1913;50.660;7.834;2023-12-20T11:20:36;19.53;;;4.10;;
3795;SDS011;1913;50.660;7.834;2023-12-20T11:23:02;13.50;;;3.87;;
3795;SDS011;1913;50.660;7.834;2023-12-20T11:25:27;18.17;;;4.10;;
3795;SDS011;1913;50.660;7.834;2023-12-20T11:28:11;9.03;;;3.60;;
3795;SDS011;1913;50.660;7.834;2023-12-20T11:33:08;12.97;;;3.17;;
3795;SDS011;1913;50.660;7.834;2023-12-20T11:35:33;13.87;;;4.57;;
3795;SDS011;1913;50.660;7.834;2023-12-20T11:38:00;15.13;;;3.93;;
3795;SDS011;1913;50.660;7.834;2023-12-20T11:40:25;16.33;;;3.27;;
3795;SDS011;1913;50.660;7.834;2023-12-20T11:42:51;12.67;;;4.47;;
3795;SDS011;1913;50.660;7.834;2023-12-20T11:45:18;9.43;;;3.10;;
3795;SDS011;1913;50.660;7.834;2023-12-20T11:47:46;17.13;;;3.80;;
3795;SDS011;1913;50.660;7.834;2023-12-20T11:50:12;13.17;;;3.70;;
3795;SDS011;1913;50.660;7.834;2023-12-20T11:52:37;14.30;;;4.70;;
3795;SDS011;1913;50.660;7.834;2023-12-20T11:55:02;11.40;;;3.80;;
3795;SDS011;1913;50.660;7.834;2023-12-20T11:57:28;17.70;;;3.90;;
3795;SDS011;1913;50.660;7.834;2023-12-20T11:59:53;17.53;;;4.10;;
3795;SDS011;1913;50.660;7.834;2023-12-20T12:02:19;21.20;;;4.50;;
3795;SDS011;1913;50.660;7.834;2023-12-20T12:04:44;14.00;;;3.87;;
3795;SDS011;1913;50.660;7.834;2023-12-20T12:07:09;17.33;;;4.00;;
3795;SDS011;1913;50.660;7.834;2023-12-20T12:09:35;8.27;;;3.80;;
3795;SDS011;1913;50.660;7.834;2023-12-20T12:12:00;18.27;;;3.90;;
3795;SDS011;1913;50.660;7.834;2023-12-20T12:14:25;15.13;;;3.73;;
3795;SDS011;1913;50.660;7.834;2023-12-20T12:16:50;8.33;;;3.57;;
3795;SDS011;1913;50.660;7.834;2023-12-20T12:19:24;25.83;;;4.07;;
3795;SDS011;1913;50.660;7.834;2023-12-20T12:22:08;18.63;;;3.60;;
3795;SDS011;1913;50.660;7.834;2023-12-20T12:24:37;16.70;;;3.73;;
3795;SDS011;1913;50.660;7.834;2023-12-20T12:27:03;10.10;;;3.43;;
3795;SDS011;1913;50.660;7.834;2023-12-20T12:29:28;18.17;;;3.97;;
3795;SDS011;1913;50.660;7.834;2023-12-20T12:31:53;11.53;;;3.40;;
3795;SDS011;1913;50.660;7.834;2023-12-20T12:34:19;7.70;;;4.00;;
3795;SDS011;1913;50.660;7.834;2023-12-20T12:36:44;12.90;;;3.93;;
3795;SDS011;1913;50.660;7.834;2023-12-20T12:39:14;16.17;;;3.40;;
3795;SDS011;1913;50.660;7.834;2023-12-20T12:41:42;12.70;;;4.47;;
3795;SDS011;1913;50.660;7.834;2023-12-20T12:44:07;16.27;;;3.73;;
3795;SDS011;1913;50.660;7.834;2023-12-20T12:46:33;12.10;;;5.40;;
3795;SDS011;1913;50.660;7.834;2023-12-20T12:48:58;8.37;;;4.00;;
3795;SDS011;1913;50.660;7.834;2023-12-20T12:51:23;8.50;;;3.80;;
3795;SDS011;1913;50.660;7.834;2023-12-20T12:53:48;11.60;;;4.07;;
3795;SDS011;1913;50.660;7.834;2023-12-20T12:56:14;14.60;;;4.20;;
3795;SDS011;1913;50.660;7.834;2023-12-20T12:58:39;12.20;;;4.23;;
3795;SDS011;1913;50.660;7.834;2023-12-20T13:01:05;16.77;;;3.50;;
3795;SDS011;1913;50.660;7.834;2023-12-20T13:03:30;17.90;;;4.40;;
3795;SDS011;1913;50.660;7.834;2023-12-20T13:05:55;14.57;;;5.30;;
3795;SDS011;1913;50.660;7.834;2023-12-20T13:08:20;14.33;;;3.93;;
3795;SDS011;1913;50.660;7.834;2023-12-20T13:10:46;12.80;;;4.10;;
3795;SDS011;1913;50.660;7.834;2023-12-20T13:13:11;18.37;;;4.27;;
3795;SDS011;1913;50.660;7.834;2023-12-20T13:15:36;15.87;;;4.47;;
3795;SDS011;1913;50.660;7.834;2023-12-20T13:18:01;13.90;;;4.20;;
3795;SDS011;1913;50.660;7.834;2023-12-20T13:20:27;11.30;;;4.03;;
3795;SDS011;1913;50.660;7.834;2023-12-20T13:22:52;13.27;;;4.20;;
3795;SDS011;1913;50.660;7.834;2023-12-20T13:25:18;10.47;;;3.90;;
3795;SDS011;1913;50.660;7.834;2023-12-20T13:27:43;16.37;;;4.50;;
3795;SDS011;1913;50.660;7.834;2023-12-20T13:30:08;14.30;;;4.73;;
3795;SDS011;1913;50.660;7.834;2023-12-20T13:32:34;11.00;;;4.70;;
3795;SDS011;1913;50.660;7.834;2023-12-20T13:34:59;9.53;;;3.93;;
3795;SDS011;1913;50.660;7.834;2023-12-20T13:37:25;9.73;;;4.20;;
3795;SDS011;1913;50.660;7.834;2023-12-20T13:39:50;12.47;;;4.70;;
3795;SDS011;1913;50.660;7.834;2023-12-20T13:42:15;9.73;;;3.50;;
3795;SDS011;1913;50.660;7.834;2023-12-20T13:44:41;7.83;;;3.97;;
3795;SDS011;1913;50.660;7.834;2023-12-20T13:47:06;11.33;;;4.20;;
3795;SDS011;1913;50.660;7.834;2023-12-20T13:49:40;13.20;;;3.83;;
3795;SDS011;1913;50.660;7.834;2023-12-20T13:52:06;15.37;;;4.50;;
3795;SDS011;1913;50.660;7.834;2023-12-20T13:54:32;13.43;;;4.53;;
3795;SDS011;1913;50.660;7.834;2023-12-20T13:56:57;12.60;;;4.53;;
3795;SDS011;1913;50.660;7.834;2023-12-20T13:59:23;16.57;;;4.60;;
3795;SDS011;1913;50.660;7.834;2023-12-20T14:01:48;13.97;;;5.27;;
3795;SDS011;1913;50.660;7.834;2023-12-20T14:04:15;19.63;;;5.30;;
3795;SDS011;1913;50.660;7.834;2023-12-20T14:06:40;9.47;;;4.73;;
3795;SDS011;1913;50.660;7.834;2023-12-20T14:09:05;17.17;;;6.47;;
3795;SDS011;1913;50.660;7.834;2023-12-20T14:11:32;14.57;;;5.50;;
3795;SDS011;1913;50.660;7.834;2023-12-20T14:13:57;14.07;;;6.37;;
3795;SDS011;1913;50.660;7.834;2023-12-20T14:16:23;18.80;;;6.50;;
3795;SDS011;1913;50.660;7.834;2023-12-20T14:18:48;12.90;;;5.87;;
3795;SDS011;1913;50.660;7.834;2023-12-20T14:21:14;13.73;;;5.73;;
3795;SDS011;1913;50.660;7.834;2023-12-20T14:23:39;16.37;;;5.63;;
3795;SDS011;1913;50.660;7.834;2023-12-20T14:26:04;14.97;;;5.40;;
3795;SDS011;1913;50.660;7.834;2023-12-20T14:28:29;19.53;;;5.27;;
3795;SDS011;1913;50.660;7.834;2023-12-20T14:30:55;10.73;;;5.80;;
3795;SDS011;1913;50.660;7.834;2023-12-20T14:33:21;14.70;;;5.20;;
3795;SDS011;1913;50.660;7.834;2023-12-20T14:35:46;15.70;;;5.37;;
3795;SDS011;1913;50.660;7.834;2023-12-20T14:38:12;14.73;;;4.97;;
3795;SDS011;1913;50.660;7.834;2023-12-20T14:40:39;15.37;;;4.83;;
3795;SDS011;1913;50.660;7.834;2023-12-20T14:43:05;9.90;;;4.30;;
3795;SDS011;1913;50.660;7.834;2023-12-20T14:45:31;11.63;;;4.00;;
3795;SDS011;1913;50.660;7.834;2023-12-20T14:47:56;6.73;;;3.93;;
3795;SDS011;1913;50.660;7.834;2023-12-20T14:50:21;6.23;;;4.00;;
3795;SDS011;1913;50.660;7.834;2023-12-20T14:52:47;10.43;;;4.37;;
3795;SDS011;1913;50.660;7.834;2023-12-20T14:55:12;11.73;;;4.23;;
3795;SDS011;1913;50.660;7.834;2023-12-20T14:57:37;9.20;;;3.33;;